createdAt,value
2022-08-25T00:00:17.264Z,16.74
2022-08-25T00:02:55.531Z,16.68
2022-08-25T00:05:32.092Z,16.66
2022-08-25T00:08:03.485Z,16.64
2022-08-25T00:10:32.445Z,16.64
2022-08-25T00:13:02.747Z,16.63
2022-08-25T00:15:32.363Z,16.60
2022-08-25T00:18:01.645Z,16.59
2022-08-25T00:20:31.070Z,16.55
2022-08-25T00:22:59.584Z,16.56
2022-08-25T00:25:28.303Z,16.55
2022-08-25T00:27:57.262Z,16.53
2022-08-25T00:30:27.211Z,16.51
2022-08-25T00:32:57.536Z,16.50
2022-08-25T00:35:27.477Z,16.52
2022-08-25T00:37:56.152Z,16.42
2022-08-25T00:40:26.629Z,16.41
2022-08-25T00:42:56.012Z,16.37
2022-08-25T00:45:24.892Z,16.22
2022-08-25T00:47:54.983Z,16.11
2022-08-25T00:50:30.058Z,16.02
2022-08-25T00:53:03.594Z,15.97
2022-08-25T00:55:36.944Z,15.96
2022-08-25T00:58:11.604Z,15.90
2022-08-25T01:00:43.307Z,15.93
2022-08-25T01:03:13.837Z,15.94
2022-08-25T01:05:44.200Z,16.00
2022-08-25T01:08:16.248Z,15.95
2022-08-25T01:10:46.099Z,15.91
2022-08-25T01:13:20.156Z,15.86
2022-08-25T01:15:50.333Z,15.89
2022-08-25T01:18:20.993Z,15.92
2022-08-25T01:20:53.582Z,15.91
2022-08-25T01:23:22.943Z,15.88
2022-08-25T01:26:02.869Z,15.86
2022-08-25T01:28:31.499Z,15.87
2022-08-25T01:31:00.206Z,15.80
2022-08-25T01:33:28.845Z,15.79
2022-08-25T01:35:58.757Z,15.77
2022-08-25T01:38:27.816Z,15.75
2022-08-25T01:40:56.404Z,15.75
2022-08-25T01:43:32.451Z,15.76
2022-08-25T01:46:01.008Z,15.75
2022-08-25T01:48:29.719Z,15.68
2022-08-25T01:50:59.652Z,15.67
2022-08-25T01:53:30.279Z,15.64
2022-08-25T01:56:10.106Z,15.65
2022-08-25T01:58:41.005Z,15.72
2022-08-25T02:01:12.441Z,15.68
2022-08-25T02:03:43.148Z,15.64
2022-08-25T02:06:14.104Z,15.58
2022-08-25T02:08:43.480Z,15.51
2022-08-25T02:11:13.164Z,15.47
2022-08-25T02:13:42.585Z,15.40
2022-08-25T02:16:15.770Z,15.43
2022-08-25T02:18:45.839Z,15.42
2022-08-25T02:21:16.460Z,15.38
2022-08-25T02:23:45.472Z,15.36
2022-08-25T02:26:16.661Z,15.33
2022-08-25T02:28:47.627Z,15.29
2022-08-25T02:31:17.057Z,15.30
2022-08-25T02:33:45.840Z,15.31
2022-08-25T02:36:16.022Z,15.32
2022-08-25T02:38:44.750Z,15.30
2022-08-25T02:41:15.928Z,15.31
2022-08-25T02:43:45.441Z,15.29
2022-08-25T02:46:14.140Z,15.25
2022-08-25T02:48:43.491Z,15.22
2022-08-25T02:51:12.769Z,15.24
2022-08-25T02:53:45.954Z,15.23
2022-08-25T02:56:16.134Z,15.23
2022-08-25T02:58:46.053Z,15.22
2022-08-25T03:01:15.575Z,15.21
2022-08-25T03:03:46.660Z,15.13
2022-08-25T03:06:18.153Z,15.10
2022-08-25T03:08:48.049Z,15.09
2022-08-25T03:11:17.602Z,15.04
2022-08-25T03:13:46.474Z,15.09
2022-08-25T03:16:16.855Z,15.05
2022-08-25T03:18:50.039Z,15.00
2022-08-25T03:21:19.333Z,15.08
2022-08-25T03:23:49.384Z,15.06
2022-08-25T03:26:35.552Z,15.03
2022-08-25T03:29:05.456Z,14.99
2022-08-25T03:31:35.550Z,14.97
2022-08-25T03:34:04.345Z,14.97
2022-08-25T03:36:32.832Z,15.01
2022-08-25T03:39:02.750Z,14.93
2022-08-25T03:41:32.655Z,14.92
2022-08-25T03:44:03.358Z,14.89
2022-08-25T03:46:35.266Z,14.84
2022-08-25T03:49:05.602Z,14.85
2022-08-25T03:51:37.200Z,14.86
2022-08-25T03:54:08.473Z,14.82
2022-08-25T03:56:37.941Z,14.79
2022-08-25T03:59:09.104Z,14.76
2022-08-25T04:01:38.431Z,14.75
2022-08-25T04:04:08.344Z,14.68
2022-08-25T04:06:37.011Z,14.65
2022-08-25T04:09:06.868Z,14.62
2022-08-25T04:11:35.542Z,14.58
2022-08-25T04:14:05.795Z,14.57
2022-08-25T04:16:36.146Z,14.55
2022-08-25T04:19:09.209Z,14.52
2022-08-25T04:21:38.827Z,14.51
2022-08-25T04:24:11.558Z,14.46
2022-08-25T04:26:43.067Z,14.42
2022-08-25T04:29:13.162Z,14.37
2022-08-25T04:31:43.788Z,14.43
2022-08-25T04:34:29.447Z,14.47
2022-08-25T04:36:58.937Z,14.46
2022-08-25T04:39:28.881Z,14.46
2022-08-25T04:41:57.432Z,14.54
2022-08-25T04:44:26.001Z,14.65
2022-08-25T04:46:54.503Z,14.77
2022-08-25T04:49:23.329Z,14.80
2022-08-25T04:51:51.780Z,14.83
2022-08-25T04:54:22.042Z,14.81
2022-08-25T04:56:54.590Z,14.88
2022-08-25T04:59:30.621Z,14.93
2022-08-25T05:02:03.006Z,14.94
2022-08-25T05:04:33.580Z,14.96
2022-08-25T05:07:03.315Z,14.97
2022-08-25T05:09:32.778Z,15.00
2022-08-25T05:12:03.841Z,14.94
2022-08-25T05:14:33.273Z,15.01
2022-08-25T05:17:02.781Z,14.97
2022-08-25T05:19:31.495Z,14.98
2022-08-25T05:21:59.981Z,15.18
2022-08-25T05:24:29.564Z,15.33
2022-08-25T05:26:58.236Z,15.42
2022-08-25T05:29:28.192Z,15.58
2022-08-25T05:31:56.759Z,15.62
2022-08-25T05:34:25.706Z,15.71
2022-08-25T05:36:54.539Z,15.83
2022-08-25T05:39:23.105Z,15.90
2022-08-25T05:41:55.583Z,16.03
2022-08-25T05:44:24.428Z,16.16
2022-08-25T05:46:54.228Z,16.28
2022-08-25T05:49:22.692Z,16.37
2022-08-25T05:51:51.190Z,16.46
2022-08-25T05:54:19.776Z,16.55
2022-08-25T05:56:48.314Z,16.72
2022-08-25T05:59:16.853Z,16.90
2022-08-25T06:02:03.056Z,17.00
2022-08-25T06:04:33.543Z,17.15
2022-08-25T06:07:02.075Z,17.27
2022-08-25T06:09:31.026Z,17.44
2022-08-25T06:11:59.564Z,17.79
2022-08-25T06:14:28.045Z,18.74
2022-08-25T06:16:56.929Z,19.81
2022-08-25T06:19:25.589Z,20.76
2022-08-25T06:21:59.260Z,21.77
2022-08-25T06:24:29.330Z,22.64
2022-08-25T06:26:58.150Z,23.19
2022-08-25T06:29:26.935Z,23.83
2022-08-25T06:31:55.518Z,24.28
2022-08-25T06:34:24.494Z,24.76
2022-08-25T06:36:53.791Z,25.33
2022-08-25T06:39:24.054Z,25.69
2022-08-25T06:41:54.323Z,26.19
2022-08-25T06:44:24.464Z,26.66
2022-08-25T06:46:52.979Z,26.97
2022-08-25T06:49:22.119Z,27.56
2022-08-25T06:51:50.744Z,27.93
2022-08-25T06:54:19.260Z,28.47
2022-08-25T06:56:49.596Z,28.70
2022-08-25T06:59:18.799Z,29.19
2022-08-25T07:01:49.618Z,29.33
2022-08-25T07:04:18.736Z,29.20
2022-08-25T07:06:48.117Z,29.58
2022-08-25T07:09:16.600Z,29.55
2022-08-25T07:11:46.547Z,30.15
2022-08-25T07:14:18.443Z,30.05
2022-08-25T07:16:49.625Z,30.70
2022-08-25T07:19:21.414Z,31.26
2022-08-25T07:21:52.264Z,31.55
2022-08-25T07:24:21.303Z,32.10
2022-08-25T07:26:50.472Z,32.18
2022-08-25T07:29:32.092Z,32.66
2022-08-25T07:32:02.020Z,32.88
2022-08-25T07:34:52.385Z,33.14
2022-08-25T07:37:47.552Z,33.45
2022-08-25T07:40:16.019Z,32.78
2022-08-25T07:42:44.811Z,33.04
2022-08-25T07:45:18.386Z,33.92
2022-08-25T07:47:53.676Z,34.37
2022-08-25T07:50:22.528Z,33.99
2022-08-25T07:52:55.012Z,33.96
2022-08-25T07:55:26.060Z,34.73
2022-08-25T08:02:18.677Z,35.87
2022-08-25T08:04:49.809Z,35.98
2022-08-25T08:07:19.469Z,35.98
2022-08-25T08:09:55.848Z,36.08
2022-08-25T08:12:25.261Z,36.35
2022-08-25T08:14:55.003Z,35.45
2022-08-25T08:17:24.896Z,35.89
2022-08-25T08:19:53.518Z,35.79
2022-08-25T08:22:22.295Z,36.44
2022-08-25T08:24:54.966Z,37.29
2022-08-25T08:27:25.520Z,37.90
2022-08-25T08:29:54.701Z,38.03
2022-08-25T08:32:31.504Z,38.57
2022-08-25T08:35:13.249Z,38.91
2022-08-25T08:37:42.528Z,39.04
2022-08-25T08:40:13.827Z,39.07
2022-08-25T08:42:58.873Z,38.74
2022-08-25T08:45:32.160Z,39.24
2022-08-25T08:48:47.583Z,39.01
2022-08-25T08:51:23.047Z,39.76
2022-08-25T08:53:57.103Z,40.35
2022-08-25T08:56:30.723Z,40.32
2022-08-25T08:59:06.374Z,39.89
2022-08-25T09:01:41.131Z,40.22
2022-08-25T09:04:18.394Z,40.69
2022-08-25T09:06:50.787Z,40.57
2022-08-25T09:09:27.652Z,40.50
2022-08-25T09:12:05.909Z,40.95
2022-08-25T09:14:53.825Z,39.76
2022-08-25T09:17:54.801Z,39.83
2022-08-25T09:20:55.870Z,40.54
2022-08-25T09:23:34.802Z,40.31
2022-08-25T09:26:22.374Z,39.82
2022-08-25T09:28:56.641Z,41.06
2022-08-25T09:31:29.731Z,41.26
2022-08-25T09:34:01.272Z,40.56
2022-08-25T09:36:37.653Z,40.85
2022-08-25T09:39:09.944Z,40.79
2022-08-25T09:41:48.230Z,40.73
2022-08-25T09:44:23.680Z,40.77
2022-08-25T09:47:06.029Z,41.05
2022-08-25T09:49:40.073Z,41.31
2022-08-25T09:52:33.388Z,40.72
2022-08-25T09:55:26.733Z,40.09
2022-08-25T09:57:56.894Z,39.43
2022-08-25T10:00:29.678Z,38.42
2022-08-25T10:03:07.833Z,37.82
2022-08-25T10:05:42.662Z,37.81
2022-08-25T10:08:25.879Z,38.12
2022-08-25T10:10:58.120Z,37.59
2022-08-25T10:13:36.398Z,38.18
2022-08-25T10:16:20.373Z,38.02
2022-08-25T10:19:08.710Z,38.91
2022-08-25T10:21:39.212Z,39.50
2022-08-25T10:24:11.287Z,39.49
2022-08-25T10:26:55.518Z,39.08
2022-08-25T10:29:37.297Z,39.18
2022-08-25T10:32:16.874Z,38.59
2022-08-25T10:34:51.402Z,37.97
2022-08-25T10:37:33.637Z,37.42
2022-08-25T10:40:13.755Z,36.56
2022-08-25T10:42:59.167Z,36.82
2022-08-25T10:45:43.971Z,37.02
2022-08-25T10:48:26.699Z,36.95
2022-08-25T10:51:00.890Z,37.38
2022-08-25T10:53:35.907Z,38.45
2022-08-25T10:56:13.191Z,38.82
2022-08-25T10:59:11.122Z,39.87
2022-08-25T11:01:53.716Z,40.88
2022-08-25T11:04:27.364Z,41.41
2022-08-25T11:07:00.441Z,41.16
2022-08-25T11:09:36.021Z,42.37
2022-08-25T11:12:12.450Z,42.17
2022-08-25T11:14:47.346Z,42.19
2022-08-25T11:17:21.117Z,42.30
2022-08-25T11:19:53.846Z,42.93
2022-08-25T11:22:28.117Z,42.50
2022-08-25T11:25:06.634Z,42.81
2022-08-25T11:27:44.301Z,41.83
2022-08-25T11:30:15.223Z,42.94
2022-08-25T11:32:47.934Z,42.23
2022-08-25T11:35:19.533Z,42.87
2022-08-25T11:38:09.384Z,42.81
2022-08-25T11:40:59.732Z,43.61
2022-08-25T11:43:45.313Z,43.25
2022-08-25T11:46:28.365Z,42.93
2022-08-25T11:49:09.019Z,43.02
2022-08-25T11:51:44.173Z,43.34
2022-08-25T11:54:22.170Z,42.87
2022-08-25T11:56:58.641Z,43.31
2022-08-25T12:00:05.419Z,43.03
2022-08-25T12:02:39.617Z,42.48
2022-08-25T12:05:12.193Z,42.51
2022-08-25T12:08:21.330Z,42.03
2022-08-25T12:11:10.638Z,42.39
2022-08-25T12:13:45.993Z,41.60
2022-08-25T12:16:41.010Z,42.90
2022-08-25T12:19:50.498Z,42.20
2022-08-25T12:22:41.336Z,41.18
2022-08-25T12:25:20.940Z,42.45
2022-08-25T12:28:00.530Z,42.87
2022-08-25T12:30:40.139Z,43.28
2022-08-25T12:33:14.730Z,42.94
2022-08-25T12:35:57.818Z,42.43
2022-08-25T12:38:31.705Z,43.42
2022-08-25T12:41:04.674Z,42.90
2022-08-25T12:43:37.599Z,43.25
2022-08-25T12:46:43.402Z,43.75
2022-08-25T12:49:31.565Z,43.75
2022-08-25T12:52:06.391Z,43.39
2022-08-25T12:54:49.049Z,42.76
2022-08-25T12:57:31.631Z,43.34
2022-08-25T13:00:06.191Z,43.33
2022-08-25T13:02:53.414Z,42.92
2022-08-25T13:05:43.851Z,42.90
2022-08-25T13:08:46.569Z,42.83
2022-08-25T13:11:20.425Z,42.58
2022-08-25T13:13:56.050Z,42.81
2022-08-25T13:16:29.549Z,41.90
2022-08-25T13:19:01.667Z,42.38
2022-08-25T13:21:35.183Z,42.37
2022-08-25T13:24:12.974Z,42.44
2022-08-25T13:26:48.473Z,42.49
2022-08-25T13:29:22.228Z,41.62
2022-08-25T13:31:57.065Z,42.06
2022-08-25T13:34:34.375Z,41.91
2022-08-25T13:37:26.472Z,42.31
2022-08-25T13:40:17.668Z,42.12
2022-08-25T13:42:55.615Z,39.61
2022-08-25T13:45:27.720Z,40.24
2022-08-25T13:47:58.490Z,40.87
2022-08-25T13:50:34.345Z,41.08
2022-08-25T13:53:11.246Z,41.27
2022-08-25T13:55:52.270Z,40.90
2022-08-25T13:58:24.210Z,39.92
2022-08-25T14:01:42.117Z,38.87
2022-08-25T14:04:20.030Z,37.67
2022-08-25T14:06:49.079Z,36.37
2022-08-25T14:09:27.875Z,36.06
2022-08-25T14:11:59.305Z,36.28
2022-08-25T14:14:34.895Z,36.22
2022-08-25T14:17:21.605Z,36.00
2022-08-25T14:19:56.705Z,35.66
2022-08-25T14:22:25.388Z,35.57
2022-08-25T14:24:55.693Z,35.54
2022-08-25T14:27:26.085Z,35.48
2022-08-25T14:29:55.737Z,35.38
2022-08-25T14:32:24.241Z,35.38
2022-08-25T14:34:54.753Z,35.19
2022-08-25T14:37:25.391Z,35.00
2022-08-25T14:39:54.715Z,34.75
2022-08-25T14:42:26.406Z,34.72
2022-08-25T14:44:56.179Z,34.67
2022-08-25T14:47:25.379Z,34.41
2022-08-25T14:49:54.005Z,34.27
2022-08-25T14:52:27.934Z,34.24
2022-08-25T14:54:57.133Z,34.33
2022-08-25T14:57:27.862Z,34.22
2022-08-25T14:59:57.975Z,34.09
2022-08-25T15:02:29.745Z,34.06
2022-08-25T15:05:05.750Z,34.08
2022-08-25T15:07:52.499Z,33.90
2022-08-25T15:10:21.651Z,33.79
2022-08-25T15:12:53.887Z,33.63
2022-08-25T15:15:26.284Z,33.54
2022-08-25T15:17:58.140Z,33.51
2022-08-25T15:20:29.199Z,33.52
2022-08-25T15:22:59.236Z,33.38
2022-08-25T15:25:27.872Z,33.12
2022-08-25T15:27:57.944Z,33.25
2022-08-25T15:30:30.974Z,33.18
2022-08-25T15:33:03.691Z,33.32
2022-08-25T15:35:35.532Z,33.39
2022-08-25T15:38:05.139Z,33.32
2022-08-25T15:40:35.213Z,33.30
2022-08-25T15:43:05.222Z,33.25
2022-08-25T15:45:36.868Z,33.25
2022-08-25T15:48:06.919Z,33.06
2022-08-25T15:50:38.710Z,32.90
2022-08-25T15:53:10.482Z,32.85
2022-08-25T15:55:40.414Z,32.83
2022-08-25T15:58:10.314Z,32.80
2022-08-25T16:00:39.398Z,32.61
2022-08-25T16:03:08.575Z,32.57
2022-08-25T16:05:37.830Z,32.48
2022-08-25T16:08:19.042Z,32.14
2022-08-25T16:10:48.145Z,31.97
2022-08-25T16:13:19.876Z,31.85
2022-08-25T16:15:53.139Z,31.88
2022-08-25T16:18:23.481Z,31.86
2022-08-25T16:20:52.192Z,31.82
2022-08-25T16:23:21.183Z,31.70
2022-08-25T16:25:50.525Z,31.65
2022-08-25T16:28:24.514Z,31.63
2022-08-25T16:30:53.576Z,31.64
2022-08-25T16:33:22.248Z,31.64
2022-08-25T16:35:50.824Z,31.57
2022-08-25T16:38:19.732Z,31.55
2022-08-25T16:40:48.429Z,31.55
2022-08-25T16:43:17.646Z,31.51
2022-08-25T16:45:47.641Z,31.43
2022-08-25T16:48:16.182Z,31.32
2022-08-25T16:50:44.852Z,31.15
2022-08-25T16:53:31.877Z,31.08
2022-08-25T16:56:07.517Z,30.95
2022-08-25T16:58:37.630Z,30.79
2022-08-25T17:01:12.773Z,30.60
2022-08-25T17:03:44.093Z,30.50
2022-08-25T17:06:14.138Z,30.41
2022-08-25T17:08:44.191Z,30.34
2022-08-25T17:11:15.062Z,30.25
2022-08-25T17:13:46.885Z,30.16
2022-08-25T17:16:21.039Z,30.05
2022-08-25T17:18:49.990Z,29.95
2022-08-25T17:21:24.357Z,29.84
2022-08-25T17:23:54.274Z,29.70
2022-08-25T17:26:27.902Z,29.64
2022-08-25T17:28:59.285Z,29.55
2022-08-25T17:31:30.940Z,29.46
2022-08-25T17:34:00.233Z,29.30
2022-08-25T17:36:29.378Z,29.11
2022-08-25T17:38:58.182Z,28.95
2022-08-25T17:41:26.982Z,28.79
2022-08-25T17:43:55.470Z,28.61
2022-08-25T17:46:24.848Z,28.43
2022-08-25T17:48:55.179Z,28.21
2022-08-25T17:51:24.365Z,28.07
2022-08-25T17:53:53.838Z,27.96
2022-08-25T17:56:27.435Z,27.82
2022-08-25T17:58:57.764Z,27.66
2022-08-25T18:01:29.506Z,27.57
2022-08-25T18:04:00.759Z,27.44
2022-08-25T18:06:30.986Z,27.33
2022-08-25T18:09:01.434Z,27.18
2022-08-25T18:11:32.279Z,27.06
2022-08-25T18:14:00.830Z,26.92
2022-08-25T18:16:29.981Z,26.79
2022-08-25T18:18:59.905Z,26.59
2022-08-25T18:21:30.938Z,26.37
2022-08-25T18:24:00.080Z,26.20
2022-08-25T18:26:28.574Z,26.10
2022-08-25T18:28:57.183Z,25.92
2022-08-25T18:31:25.704Z,25.73
2022-08-25T18:33:54.293Z,25.60
2022-08-25T18:36:24.372Z,25.42
2022-08-25T18:39:11.764Z,25.25
2022-08-25T18:41:45.220Z,25.03
2022-08-25T18:44:15.594Z,24.90
2022-08-25T18:46:45.277Z,24.73
2022-08-25T18:49:15.880Z,24.56
2022-08-25T18:51:46.875Z,24.40
2022-08-25T18:54:22.776Z,24.34
2022-08-25T18:56:53.110Z,24.31
2022-08-25T18:59:23.693Z,24.31
2022-08-25T19:01:54.343Z,24.30
2022-08-25T19:04:31.393Z,24.27
2022-08-25T19:07:03.020Z,24.22
2022-08-25T19:09:32.972Z,24.21
2022-08-25T19:12:02.122Z,24.21
2022-08-25T19:14:30.881Z,24.18
2022-08-25T19:16:59.535Z,24.10
2022-08-25T19:19:29.758Z,23.96
2022-08-25T19:21:59.225Z,23.81
2022-08-25T19:24:29.742Z,23.62
2022-08-25T19:27:02.198Z,23.44
2022-08-25T19:29:31.413Z,23.30
2022-08-25T19:32:02.460Z,23.17
2022-08-25T19:34:35.354Z,23.04
2022-08-25T19:37:06.358Z,22.95
2022-08-25T19:39:43.898Z,22.89
2022-08-25T19:42:34.868Z,22.79
2022-08-25T19:45:09.430Z,22.72
2022-08-25T19:47:38.519Z,22.67
2022-08-25T19:50:09.418Z,22.63
2022-08-25T19:52:39.821Z,22.48
2022-08-25T19:55:10.108Z,22.47
2022-08-25T19:57:42.669Z,22.38
2022-08-25T20:00:15.852Z,22.36
2022-08-25T20:03:42.953Z,22.34
2022-08-25T20:06:11.497Z,22.28
2022-08-25T20:08:44.944Z,22.16
2022-08-25T20:11:14.933Z,22.14
2022-08-25T20:13:44.001Z,22.09
2022-08-25T20:16:12.624Z,22.05
2022-08-25T20:18:42.583Z,22.06
2022-08-25T20:21:11.801Z,21.96
2022-08-25T20:23:57.993Z,21.90
2022-08-25T20:26:29.123Z,21.80
2022-08-25T20:28:58.321Z,21.66
2022-08-25T20:31:26.887Z,21.54
2022-08-25T20:34:00.309Z,21.50
2022-08-25T20:36:35.253Z,21.39
2022-08-25T20:39:05.097Z,21.32
2022-08-25T20:41:36.172Z,21.28
2022-08-25T20:44:05.247Z,21.23
2022-08-25T20:46:34.810Z,21.25
2022-08-25T20:49:07.343Z,21.15
2022-08-25T20:51:36.318Z,21.07
2022-08-25T20:54:06.080Z,21.09
2022-08-25T20:56:36.121Z,21.03
2022-08-25T20:59:05.699Z,20.97
2022-08-25T21:01:40.316Z,20.87
2022-08-25T21:04:14.320Z,20.82
2022-08-25T21:06:43.683Z,20.75
2022-08-25T21:09:16.053Z,20.76
2022-08-25T21:11:46.660Z,20.79
2022-08-25T21:14:15.988Z,20.84
2022-08-25T21:16:47.067Z,20.92
2022-08-25T21:19:16.806Z,21.10
2022-08-25T21:22:00.055Z,21.45
2022-08-25T21:24:29.978Z,21.83
2022-08-25T21:27:00.692Z,22.04
2022-08-25T21:29:29.984Z,22.17
2022-08-25T21:31:59.667Z,22.24
2022-08-25T21:34:29.378Z,22.24
2022-08-25T21:36:59.238Z,22.18
2022-08-25T21:39:31.950Z,22.12
2022-08-25T21:42:03.353Z,22.01
2022-08-25T21:44:31.900Z,21.99
2022-08-25T21:47:01.228Z,21.88
2022-08-25T21:49:29.946Z,21.78
2022-08-25T21:52:06.369Z,21.66
2022-08-25T21:54:38.680Z,21.54
2022-08-25T21:57:09.312Z,21.44
2022-08-25T21:59:41.287Z,21.39
2022-08-25T22:02:19.198Z,21.38
2022-08-25T22:04:53.399Z,21.38
2022-08-25T22:07:24.725Z,21.40
2022-08-25T22:09:54.934Z,21.42
2022-08-25T22:12:25.088Z,21.35
2022-08-25T22:14:53.835Z,21.32
2022-08-25T22:17:24.251Z,21.34
2022-08-25T22:19:54.134Z,21.23
2022-08-25T22:22:23.001Z,21.15
2022-08-25T22:24:53.009Z,21.07
2022-08-25T22:27:23.459Z,21.05
2022-08-25T22:29:53.638Z,21.15
2022-08-25T22:32:22.163Z,21.11
2022-08-25T22:34:51.015Z,21.05
2022-08-25T22:37:19.693Z,21.08
2022-08-25T22:39:48.735Z,21.08
2022-08-25T22:42:18.367Z,20.99
2022-08-25T22:44:46.840Z,20.96
2022-08-25T22:47:16.642Z,20.92
2022-08-25T22:49:45.216Z,20.87
2022-08-25T22:52:15.369Z,20.75
2022-08-25T22:54:44.154Z,20.69
2022-08-25T22:57:12.995Z,20.66
2022-08-25T22:59:41.464Z,20.71
2022-08-25T23:02:09.924Z,20.63
2022-08-25T23:04:41.091Z,20.72
2022-08-25T23:07:11.297Z,20.64
2022-08-25T23:09:40.077Z,20.58
2022-08-25T23:12:09.257Z,20.53
2022-08-25T23:14:42.267Z,20.51
2022-08-25T23:17:12.932Z,20.45
2022-08-25T23:19:43.478Z,20.33
2022-08-25T23:22:12.519Z,20.25
2022-08-25T23:24:43.033Z,20.12
2022-08-25T23:27:15.669Z,20.13
2022-08-25T23:29:47.230Z,20.14
2022-08-25T23:32:17.071Z,20.05
2022-08-25T23:34:48.275Z,19.95
2022-08-25T23:37:18.358Z,19.99
2022-08-25T23:39:49.978Z,20.06
2022-08-25T23:42:20.401Z,20.01
2022-08-25T23:44:49.725Z,19.91
2022-08-25T23:47:19.245Z,19.90
2022-08-25T23:49:49.341Z,19.82
2022-08-25T23:52:18.304Z,19.73
2022-08-25T23:54:47.174Z,19.71
2022-08-25T23:57:15.939Z,19.70
2022-08-25T23:59:47.368Z,19.63
